createdAt,value
2018-01-03T00:02:08.322Z,47.83
2018-01-03T00:04:36.734Z,51.17
2018-01-03T00:07:05.445Z,50.73
2018-01-03T00:09:34.630Z,54.03
2018-01-03T00:12:03.809Z,50.60
2018-01-03T00:14:32.537Z,49.97
2018-01-03T00:17:00.949Z,50.43
2018-01-03T00:19:29.361Z,49.70
2018-01-03T00:21:58.582Z,49.17
2018-01-03T00:24:27.757Z,51.07
2018-01-03T00:26:56.174Z,51.47
2018-01-03T00:29:24.853Z,50.53
2018-01-03T00:31:53.273Z,53.67
2018-01-03T00:34:21.689Z,50.87
2018-01-03T00:36:50.934Z,46.53
2018-01-03T00:39:19.358Z,47.00
2018-01-03T00:41:47.790Z,50.07
2018-01-03T00:44:16.237Z,48.43
2018-01-03T00:46:45.422Z,47.73
2018-01-03T00:49:14.614Z,47.47
2018-01-03T00:51:43.439Z,47.63
2018-01-03T00:54:11.853Z,47.77
2018-01-03T00:56:40.266Z,48.07
2018-01-03T00:59:09.801Z,49.50
2018-01-03T01:01:38.237Z,51.13
2018-01-03T01:04:06.661Z,55.77
2018-01-03T01:06:35.125Z,55.93
2018-01-03T01:09:04.414Z,57.43
2018-01-03T01:11:33.598Z,55.33
2018-01-03T01:14:02.078Z,49.57
2018-01-03T01:16:30.493Z,48.53
2018-01-03T01:18:59.673Z,45.13
2018-01-03T01:21:29.093Z,44.37
2018-01-03T01:23:58.270Z,44.00
2018-01-03T01:26:27.457Z,42.77
2018-01-03T01:28:55.941Z,44.47
2018-01-03T01:31:25.865Z,47.90
2018-01-03T01:33:55.049Z,44.47
2018-01-03T01:36:23.775Z,43.00
2018-01-03T01:38:52.189Z,43.50
2018-01-03T01:41:20.601Z,47.63
2018-01-03T01:43:50.709Z,46.97
2018-01-03T01:46:19.123Z,49.47
2018-01-03T01:49:06.069Z,48.30
2018-01-03T01:51:34.494Z,46.23
2018-01-03T01:54:02.909Z,47.20
2018-01-03T01:56:31.586Z,45.97
2018-01-03T01:59:00.765Z,47.03
2018-01-03T02:01:29.942Z,41.83
2018-01-03T02:03:58.565Z,41.73
2018-01-03T02:06:27.757Z,41.60
2018-01-03T02:08:56.173Z,40.30
2018-01-03T02:11:24.781Z,36.80
2018-01-03T02:13:53.190Z,36.07
2018-01-03T02:16:22.370Z,32.90
2018-01-03T02:18:50.989Z,31.53
2018-01-03T02:21:19.402Z,29.60
2018-01-03T02:23:47.813Z,27.77
2018-01-03T02:26:16.545Z,25.90
2018-01-03T02:28:44.957Z,24.80
2018-01-03T02:31:13.414Z,24.87
2018-01-03T02:33:41.866Z,25.07
2018-01-03T02:36:11.062Z,23.33
2018-01-03T02:38:40.242Z,22.20
2018-01-03T02:41:09.773Z,18.67
2018-01-03T02:43:38.949Z,13.37
2018-01-03T02:46:08.126Z,12.27
2018-01-03T02:48:36.749Z,13.40
2018-01-03T02:51:05.926Z,11.60
2018-01-03T02:53:35.105Z,7.47
2018-01-03T02:56:03.567Z,4.17
2018-01-03T02:58:31.977Z,3.53
2018-01-03T03:01:01.149Z,2.10
2018-01-03T03:03:29.589Z,2.00
2018-01-03T03:05:57.997Z,1.90
2018-01-03T03:08:26.405Z,3.67
2018-01-03T03:10:55.029Z,2.03
2018-01-03T03:13:23.441Z,1.90
2018-01-03T03:15:51.849Z,1.57
2018-01-03T03:18:20.477Z,1.60
2018-01-03T03:20:48.886Z,1.60
2018-01-03T03:23:18.065Z,1.80
2018-01-03T03:25:46.693Z,1.33
2018-01-03T03:28:15.101Z,1.30
2018-01-03T03:30:45.269Z,1.30
2018-01-03T03:33:14.517Z,1.50
2018-01-03T03:35:42.929Z,1.23
2018-01-03T03:38:11.344Z,1.37
2018-01-03T03:40:39.794Z,1.47
2018-01-03T03:43:08.197Z,3.37
2018-01-03T03:45:37.372Z,4.53
2018-01-03T03:48:05.821Z,7.37
2018-01-03T03:50:34.233Z,10.63
2018-01-03T03:53:04.157Z,14.57
2018-01-03T03:55:33.397Z,17.77
2018-01-03T03:58:01.810Z,21.53
2018-01-03T04:00:30.221Z,26.77
2018-01-03T04:02:59.437Z,30.80
2018-01-03T04:05:27.855Z,25.23
2018-01-03T04:07:56.269Z,29.17
2018-01-03T04:10:25.662Z,53.27
2018-01-03T04:12:54.105Z,95.37
2018-01-03T04:15:22.526Z,106.60
2018-01-03T04:17:50.977Z,68.47
2018-01-03T04:20:19.394Z,37.63
2018-01-03T04:22:48.570Z,33.73
2018-01-03T04:25:17.129Z,34.87
2018-01-03T04:27:45.540Z,36.73
2018-01-03T04:30:13.957Z,36.73
2018-01-03T04:32:42.537Z,37.73
2018-01-03T04:35:10.973Z,37.50
2018-01-03T04:37:40.897Z,34.60
2018-01-03T04:40:09.350Z,32.73
2018-01-03T04:42:37.765Z,32.80
2018-01-03T04:45:06.953Z,34.23
2018-01-03T04:47:35.573Z,42.07
2018-01-03T04:50:04.013Z,41.20
2018-01-03T04:52:33.194Z,37.87
2018-01-03T04:55:01.837Z,37.40
2018-01-03T04:57:30.254Z,44.40
2018-01-03T04:59:58.669Z,40.60
2018-01-03T05:02:28.097Z,38.83
2018-01-03T05:04:56.514Z,37.67
2018-01-03T05:07:24.926Z,42.40
2018-01-03T05:09:53.542Z,36.80
2018-01-03T05:12:21.963Z,58.07
2018-01-03T05:14:50.385Z,61.53
2018-01-03T05:17:19.760Z,64.37
2018-01-03T05:19:48.177Z,75.53
2018-01-03T05:22:16.597Z,80.07
2018-01-03T05:24:45.457Z,72.50
2018-01-03T05:27:13.870Z,73.90
2018-01-03T05:29:42.282Z,50.83
2018-01-03T05:32:11.713Z,39.20
2018-01-03T05:34:40.153Z,32.43
2018-01-03T05:37:08.581Z,30.47
2018-01-03T05:39:37.265Z,31.53
2018-01-03T05:42:05.678Z,28.80
2018-01-03T05:44:34.089Z,28.97
2018-01-03T05:47:04.202Z,31.73
2018-01-03T05:49:32.615Z,33.77
2018-01-03T05:52:01.034Z,42.07
2018-01-03T05:54:29.593Z,34.20
2018-01-03T05:56:58.006Z,39.77
2018-01-03T05:59:26.418Z,33.40
2018-01-03T06:01:55.842Z,28.77
2018-01-03T06:04:24.265Z,19.20
2018-01-03T06:06:52.673Z,17.73
2018-01-03T06:09:21.121Z,16.33
2018-01-03T06:11:49.533Z,18.30
2018-01-03T06:14:18.719Z,17.20
2018-01-03T06:16:47.938Z,18.73
2018-01-03T06:19:17.118Z,22.40
2018-01-03T06:21:45.533Z,19.37
2018-01-03T06:24:14.014Z,21.17
2018-01-03T06:26:42.438Z,20.63
2018-01-03T06:29:10.855Z,19.83
2018-01-03T06:31:40.084Z,15.03
2018-01-03T06:34:08.580Z,16.20
2018-01-03T06:36:37.006Z,13.87
2018-01-03T06:39:05.721Z,8.50
2018-01-03T06:41:34.141Z,10.50
2018-01-03T06:44:02.553Z,10.23
2018-01-03T06:46:31.782Z,10.10
2018-01-03T06:49:00.198Z,8.33
2018-01-03T06:51:28.607Z,9.53
2018-01-03T06:53:57.977Z,10.93
2018-01-03T06:56:26.386Z,17.47
2018-01-03T06:58:54.801Z,36.80
2018-01-03T07:01:23.477Z,16.47
2018-01-03T07:03:52.678Z,10.33
2018-01-03T07:06:21.097Z,10.67
2018-01-03T07:08:49.959Z,11.50
2018-01-03T07:11:18.369Z,16.10
2018-01-03T07:13:46.786Z,16.87
2018-01-03T07:16:16.209Z,18.43
2018-01-03T07:18:44.625Z,17.90
2018-01-03T07:21:13.040Z,21.63
2018-01-03T07:23:41.489Z,20.27
2018-01-03T07:26:09.901Z,19.20
2018-01-03T07:28:39.085Z,21.97
2018-01-03T07:31:07.542Z,23.70
2018-01-03T07:33:35.958Z,16.87
2018-01-03T07:36:05.149Z,24.03
2018-01-03T07:38:33.765Z,22.67
2018-01-03T07:41:02.939Z,19.47
2018-01-03T07:43:32.131Z,15.63
2018-01-03T07:46:00.586Z,12.77
2018-01-03T07:48:29.001Z,13.17
2018-01-03T07:50:58.189Z,11.57
2018-01-03T07:53:27.625Z,13.53
2018-01-03T07:55:56.046Z,11.97
2018-01-03T07:58:24.465Z,19.90
2018-01-03T08:00:53.889Z,20.20
2018-01-03T08:03:22.301Z,15.70
2018-01-03T08:05:50.722Z,9.07
2018-01-03T08:08:20.254Z,9.57
2018-01-03T08:10:48.694Z,6.40
2018-01-03T08:13:17.125Z,11.73
2018-01-03T08:15:45.590Z,11.00
2018-01-03T08:18:14.774Z,7.70
2018-01-03T08:20:43.965Z,6.53
2018-01-03T08:23:13.397Z,6.40
2018-01-03T08:25:41.813Z,5.37
2018-01-03T08:28:10.225Z,7.77
2018-01-03T08:30:39.449Z,3.60
2018-01-03T08:33:07.865Z,3.13
2018-01-03T08:35:36.274Z,2.10
2018-01-03T08:38:05.717Z,3.27
2018-01-03T08:40:34.126Z,3.57
2018-01-03T08:43:02.546Z,5.27
2018-01-03T08:45:32.113Z,6.70
2018-01-03T08:48:00.530Z,6.33
2018-01-03T08:50:29.725Z,3.43
2018-01-03T08:52:58.197Z,8.13
2018-01-03T08:55:26.609Z,2.93
2018-01-03T08:57:55.030Z,6.53
2018-01-03T09:00:23.889Z,3.50
2018-01-03T09:02:52.302Z,2.00
2018-01-03T09:05:20.709Z,3.30
2018-01-03T09:07:49.169Z,2.00
2018-01-03T09:10:17.584Z,2.17
2018-01-03T09:12:46.761Z,2.50
2018-01-03T09:15:15.226Z,1.83
2018-01-03T09:17:43.638Z,2.20
2018-01-03T09:20:12.817Z,2.00
2018-01-03T09:22:41.446Z,2.17
2018-01-03T09:25:09.857Z,2.90
2018-01-03T09:27:38.270Z,3.00
2018-01-03T09:30:07.506Z,3.20
2018-01-03T09:32:35.996Z,3.53
2018-01-03T09:35:04.410Z,3.70
2018-01-03T09:37:32.886Z,4.40
2018-01-03T09:40:02.322Z,3.27
2018-01-03T09:42:31.505Z,3.07
2018-01-03T09:44:59.973Z,3.10
2018-01-03T09:47:28.390Z,2.90
2018-01-03T09:49:57.573Z,2.63
2018-01-03T09:52:27.783Z,2.63
2018-01-03T09:54:56.197Z,2.90
2018-01-03T09:57:24.622Z,2.80
2018-01-03T09:59:53.117Z,2.60
2018-01-03T10:02:21.553Z,2.23
2018-01-03T10:04:49.965Z,4.00
2018-01-03T10:07:18.450Z,5.13
2018-01-03T10:09:46.870Z,9.53
2018-01-03T10:12:16.066Z,8.87
2018-01-03T10:14:45.482Z,4.40
2018-01-03T10:17:13.894Z,5.40
2018-01-03T10:19:42.309Z,4.83
2018-01-03T10:22:10.930Z,4.13
2018-01-03T10:24:40.144Z,4.20
2018-01-03T10:27:08.562Z,2.63
2018-01-03T10:29:37.121Z,3.10
2018-01-03T10:32:05.543Z,3.70
2018-01-03T10:34:34.729Z,4.40
2018-01-03T10:37:03.221Z,5.90
2018-01-03T10:39:32.430Z,8.90
2018-01-03T10:42:01.618Z,6.33
2018-01-03T10:44:30.882Z,6.37
2018-01-03T10:46:59.297Z,4.70
2018-01-03T10:49:28.486Z,4.10
2018-01-03T10:51:56.958Z,4.63
2018-01-03T10:54:25.369Z,5.30
2018-01-03T10:56:53.789Z,6.10
2018-01-03T10:59:22.441Z,4.83
2018-01-03T11:01:50.851Z,6.50
2018-01-03T11:04:19.328Z,5.77
2018-01-03T11:06:48.514Z,8.10
2018-01-03T11:09:16.930Z,8.23
2018-01-03T11:11:45.341Z,7.40
2018-01-03T11:14:14.765Z,8.00
2018-01-03T11:16:43.190Z,5.90
2018-01-03T11:19:11.606Z,5.67
2018-01-03T11:21:41.230Z,4.90
2018-01-03T11:24:09.646Z,4.20
2018-01-03T11:26:38.069Z,4.10
2018-01-03T11:29:07.290Z,4.37
2018-01-03T11:31:35.703Z,4.87
2018-01-03T11:34:04.122Z,6.10
2018-01-03T11:36:33.554Z,6.10
2018-01-03T11:39:01.970Z,4.20
2018-01-03T11:41:30.386Z,4.63
2018-01-03T11:43:59.806Z,5.27
2018-01-03T11:46:28.986Z,4.80
2018-01-03T11:48:58.170Z,3.30
2018-01-03T11:51:26.894Z,3.30
2018-01-03T11:53:55.314Z,3.47
2018-01-03T11:56:23.729Z,3.37
2018-01-03T11:58:52.977Z,3.50
2018-01-03T12:01:21.397Z,3.77
2018-01-03T12:03:51.330Z,4.20
2018-01-03T12:06:20.856Z,4.40
2018-01-03T12:08:49.273Z,4.57
2018-01-03T12:11:17.698Z,5.43
2018-01-03T12:13:47.009Z,5.10
2018-01-03T12:16:15.693Z,8.03
2018-01-03T12:18:44.110Z,5.67
2018-01-03T12:21:12.757Z,4.47
2018-01-03T12:23:41.176Z,3.60
2018-01-03T12:26:09.640Z,3.70
2018-01-03T12:28:38.081Z,3.50
2018-01-03T12:31:07.262Z,3.83
2018-01-03T12:33:35.677Z,3.37
2018-01-03T12:36:04.206Z,4.20
2018-01-03T12:38:32.626Z,3.27
2018-01-03T12:41:01.812Z,2.90
2018-01-03T12:43:31.325Z,2.53
2018-01-03T12:46:00.506Z,2.70
2018-01-03T12:48:29.689Z,3.97
2018-01-03T12:50:58.522Z,4.30
2018-01-03T12:53:26.934Z,3.33
2018-01-03T12:55:55.357Z,20.57
2018-01-03T12:58:24.586Z,10.80
2018-01-03T13:00:53.002Z,8.23
2018-01-03T13:03:21.422Z,12.53
2018-01-03T13:05:50.851Z,6.07
2018-01-03T13:08:19.257Z,4.70
2018-01-03T13:10:47.669Z,3.23
2018-01-03T13:13:16.897Z,6.17
2018-01-03T13:15:45.317Z,7.60
2018-01-03T13:18:13.735Z,3.60
2018-01-03T13:20:42.954Z,3.70
2018-01-03T13:23:11.378Z,5.07
2018-01-03T13:25:39.795Z,8.07
2018-01-03T13:28:09.053Z,6.10
2018-01-03T13:30:37.486Z,8.33
2018-01-03T13:33:05.922Z,13.97
2018-01-03T13:35:35.634Z,12.00
2018-01-03T13:38:04.047Z,12.87
2018-01-03T13:40:33.238Z,18.07
2018-01-03T13:43:02.477Z,14.37
2018-01-03T13:45:30.906Z,17.80
2018-01-03T13:47:59.330Z,22.97
2018-01-03T13:50:28.002Z,9.80
2018-01-03T13:52:56.429Z,9.30
2018-01-03T13:55:24.846Z,12.63
2018-01-03T13:57:54.073Z,11.83
2018-01-03T14:00:22.500Z,36.60
2018-01-03T14:02:50.930Z,57.17
2018-01-03T14:05:19.616Z,55.67
2018-01-03T14:07:48.042Z,29.30
2018-01-03T14:10:16.467Z,17.77
2018-01-03T14:12:44.957Z,11.27
2018-01-03T14:15:13.374Z,10.63
2018-01-03T14:17:41.793Z,9.10
2018-01-03T14:20:11.208Z,9.20
2018-01-03T14:22:40.398Z,16.57
2018-01-03T14:25:09.578Z,22.30
2018-01-03T14:27:39.206Z,18.17
2018-01-03T14:30:08.398Z,21.37
2018-01-03T14:32:36.823Z,34.17
2018-01-03T14:35:05.681Z,18.03
2018-01-03T14:37:34.106Z,26.23
2018-01-03T14:40:02.525Z,21.63
2018-01-03T14:42:31.741Z,23.93
2018-01-03T14:45:00.154Z,30.97
2018-01-03T14:47:28.573Z,24.73
2018-01-03T14:49:57.798Z,25.53
2018-01-03T14:52:26.213Z,18.33
2018-01-03T14:54:54.635Z,26.17
2018-01-03T14:57:24.053Z,46.97
2018-01-03T14:59:52.474Z,33.63
2018-01-03T15:02:20.890Z,36.67
2018-01-03T15:04:50.122Z,28.93
2018-01-03T15:07:18.543Z,42.20
2018-01-03T15:09:46.966Z,42.50
2018-01-03T15:12:15.445Z,35.17
2018-01-03T15:14:43.869Z,45.00
2018-01-03T15:17:12.283Z,40.17
2018-01-03T15:19:40.762Z,39.23
2018-01-03T15:22:09.961Z,42.80
2018-01-03T15:24:38.387Z,54.33
2018-01-03T15:27:07.057Z,31.30
2018-01-03T15:29:35.478Z,58.90
2018-01-03T15:32:03.905Z,50.63
2018-01-03T15:34:33.128Z,55.60
2018-01-03T15:37:01.554Z,97.53
2018-01-03T15:39:29.991Z,38.77
2018-01-03T15:41:58.441Z,35.93
2018-01-03T15:44:26.870Z,49.03
2018-01-03T15:46:55.286Z,37.00
2018-01-03T15:49:24.524Z,25.03
2018-01-03T15:51:52.940Z,26.37
2018-01-03T15:54:21.353Z,51.17
2018-01-03T15:56:50.777Z,50.63
2018-01-03T15:59:19.197Z,87.20
2018-01-03T16:01:47.626Z,70.53
2018-01-03T16:04:16.326Z,79.60
2018-01-03T16:06:44.747Z,73.93
2018-01-03T16:09:13.170Z,43.40
2018-01-03T16:11:42.410Z,109.53
2018-01-03T16:14:10.825Z,42.50
2018-01-03T16:16:39.251Z,57.83
2018-01-03T16:19:07.812Z,63.80
2018-01-03T16:21:36.238Z,59.20
2018-01-03T16:24:04.658Z,51.10
2018-01-03T16:26:33.914Z,57.00
2018-01-03T16:29:02.326Z,58.50
2018-01-03T16:31:30.741Z,61.57
2018-01-03T16:33:59.358Z,59.77
2018-01-03T16:36:27.779Z,124.70
2018-01-03T16:38:56.965Z,103.43
2018-01-03T16:41:26.218Z,54.53
2018-01-03T16:43:54.651Z,55.80
2018-01-03T16:46:23.838Z,55.23
2018-01-03T16:48:52.562Z,49.87
2018-01-03T16:51:21.006Z,47.30
2018-01-03T16:53:50.206Z,45.90
2018-01-03T16:56:19.437Z,49.53
2018-01-03T16:58:47.861Z,49.07
2018-01-03T17:01:17.042Z,51.10
2018-01-03T17:03:45.757Z,45.63
2018-01-03T17:06:14.954Z,71.13
2018-01-03T17:08:43.370Z,71.47
2018-01-03T17:11:12.235Z,32.57
2018-01-03T17:13:40.650Z,57.77
2018-01-03T17:16:09.078Z,91.83
2018-01-03T17:18:37.693Z,66.33
2018-01-03T17:21:06.114Z,99.57
2018-01-03T17:23:34.541Z,79.87
2018-01-03T17:26:03.017Z,80.30
2018-01-03T17:28:31.434Z,98.50
2018-01-03T17:30:59.854Z,62.97
2018-01-03T17:33:30.218Z,63.87
2018-01-03T17:35:58.651Z,105.20
2018-01-03T17:38:27.838Z,35.30
2018-01-03T17:40:56.566Z,48.43
2018-01-03T17:43:25.011Z,22.20
2018-01-03T17:45:54.202Z,12.00
2018-01-03T17:48:22.687Z,27.83
2018-01-03T17:50:51.714Z,35.83
2018-01-03T17:53:20.134Z,20.17
2018-01-03T17:55:48.778Z,23.73
2018-01-03T17:58:17.202Z,21.30
2018-01-03T18:00:45.710Z,13.07
2018-01-03T18:03:15.143Z,16.97
2018-01-03T18:05:43.558Z,24.33
2018-01-03T18:08:11.974Z,15.93
2018-01-03T18:10:41.214Z,20.57
2018-01-03T18:13:09.634Z,13.73
2018-01-03T18:15:38.049Z,11.37
2018-01-03T18:18:07.472Z,15.80
2018-01-03T18:20:35.889Z,41.80
2018-01-03T18:23:04.367Z,73.37
2018-01-03T18:25:33.031Z,39.73
2018-01-03T18:28:01.450Z,12.13
2018-01-03T18:30:29.873Z,10.67
2018-01-03T18:32:58.564Z,15.53
2018-01-03T18:35:26.974Z,24.07
2018-01-03T18:37:55.397Z,38.70
2018-01-03T18:40:24.814Z,41.17
2018-01-03T18:42:53.238Z,51.33
2018-01-03T18:45:21.658Z,52.77
2018-01-03T18:47:51.087Z,79.50
2018-01-03T18:50:19.506Z,95.60
2018-01-03T18:52:47.933Z,111.07
2018-01-03T18:55:16.394Z,115.03
2018-01-03T18:57:46.273Z,101.60
2018-01-03T19:00:14.801Z,64.23
2018-01-03T19:02:44.018Z,51.67
2018-01-03T19:05:12.430Z,48.67
2018-01-03T19:07:40.858Z,46.93
2018-01-03T19:10:10.274Z,56.17
2018-01-03T19:12:38.710Z,82.53
2018-01-03T19:15:07.132Z,104.33
2018-01-03T19:17:35.617Z,61.93
2018-01-03T19:20:04.038Z,58.17
2018-01-03T19:22:32.457Z,62.27
2018-01-03T19:25:01.687Z,57.80
2018-01-03T19:27:30.114Z,80.77
2018-01-03T19:29:58.554Z,88.17
2018-01-03T19:32:27.175Z,94.03
2018-01-03T19:34:55.619Z,78.43
2018-01-03T19:37:24.098Z,55.40
2018-01-03T19:39:52.870Z,98.37
2018-01-03T19:42:21.301Z,242.40
2018-01-03T19:44:49.731Z,133.10
2018-01-03T19:47:18.411Z,123.30
2018-01-03T19:49:46.834Z,110.97
2018-01-03T19:52:15.249Z,80.43
2018-01-03T19:54:44.907Z,55.90
2018-01-03T19:57:13.591Z,53.70
2018-01-03T19:59:42.217Z,45.20
2018-01-03T20:02:11.785Z,49.13
2018-01-03T20:04:40.471Z,75.57
2018-01-03T20:07:09.971Z,64.63
2018-01-03T20:09:38.656Z,53.33
2018-01-03T20:12:07.340Z,43.80
2018-01-03T20:14:35.974Z,45.07
2018-01-03T20:17:05.791Z,136.70
2018-01-03T20:19:35.241Z,46.97
2018-01-03T20:22:03.902Z,119.30
2018-01-03T20:24:32.869Z,48.40
2018-01-03T20:27:02.330Z,37.23
2018-01-03T20:29:30.976Z,73.97
2018-01-03T20:31:59.940Z,121.00
2018-01-03T20:34:29.420Z,34.70
2018-01-03T20:36:57.986Z,22.97
2018-01-03T20:39:26.970Z,22.63
2018-01-03T20:41:55.679Z,53.37
2018-01-03T20:44:24.359Z,48.87
2018-01-03T20:46:53.206Z,35.70
2018-01-03T20:49:21.756Z,44.13
2018-01-03T20:51:50.515Z,122.40
2018-01-03T20:54:19.300Z,56.70
2018-01-03T20:56:47.986Z,71.53
2018-01-03T20:59:16.618Z,67.30
2018-01-03T21:01:46.279Z,37.60
2018-01-03T21:04:14.976Z,37.47
2018-01-03T21:06:43.650Z,40.83
2018-01-03T21:09:12.446Z,47.80
2018-01-03T21:11:41.132Z,35.43
2018-01-03T21:14:09.770Z,50.53
2018-01-03T21:16:39.132Z,49.80
2018-01-03T21:19:07.859Z,49.77
2018-01-03T21:21:36.590Z,45.63
2018-01-03T21:24:05.545Z,47.93
2018-01-03T21:26:34.278Z,39.57
2018-01-03T21:29:02.954Z,43.57
2018-01-03T21:31:31.737Z,48.87
2018-01-03T21:34:00.424Z,56.93
2018-01-03T21:36:29.062Z,34.47
2018-01-03T21:38:57.795Z,44.03
2018-01-03T21:41:26.444Z,41.63
2018-01-03T21:43:55.166Z,33.43
2018-01-03T21:46:23.852Z,24.80
2018-01-03T21:48:52.538Z,24.43
2018-01-03T21:51:21.083Z,27.03
2018-01-03T21:53:50.219Z,32.47
2018-01-03T21:56:18.852Z,28.10
2018-01-03T21:58:48.313Z,25.27
2018-01-03T22:01:16.959Z,32.70
2018-01-03T22:03:45.501Z,24.30
2018-01-03T22:06:14.262Z,19.77
2018-01-03T22:08:43.156Z,14.77
2018-01-03T22:11:11.807Z,15.33
2018-01-03T22:13:40.527Z,13.63
2018-01-03T22:16:10.492Z,15.00
2018-01-03T22:18:39.828Z,15.37
2018-01-03T22:21:08.529Z,15.20
2018-01-03T22:23:37.414Z,17.83
2018-01-03T22:26:06.107Z,24.13
2018-01-03T22:28:34.755Z,28.90
2018-01-03T22:31:03.577Z,29.40
2018-01-03T22:33:32.218Z,31.00
2018-01-03T22:36:00.949Z,20.53
2018-01-03T22:38:29.699Z,16.87
2018-01-03T22:40:58.429Z,19.30
2018-01-03T22:43:27.005Z,19.17
2018-01-03T22:45:55.979Z,17.73
2018-01-03T22:48:24.685Z,18.50
2018-01-03T22:50:53.342Z,20.77
2018-01-03T22:53:22.207Z,19.97
2018-01-03T22:55:51.664Z,16.73
2018-01-03T22:58:20.293Z,17.27
2018-01-03T23:00:50.032Z,18.77
2018-01-03T23:03:18.753Z,15.07
2018-01-03T23:05:47.374Z,14.67
2018-01-03T23:08:16.937Z,12.83
2018-01-03T23:10:45.523Z,16.60
2018-01-03T23:13:14.150Z,15.07
2018-01-03T23:15:43.817Z,17.20
2018-01-03T23:18:12.459Z,18.40
2018-01-03T23:20:41.189Z,19.53
2018-01-03T23:23:10.146Z,17.83
2018-01-03T23:25:38.868Z,16.10
2018-01-03T23:28:07.509Z,16.07
2018-01-03T23:30:36.599Z,16.30
2018-01-03T23:33:05.331Z,18.93
2018-01-03T23:35:33.959Z,23.43
2018-01-03T23:38:03.733Z,25.17
2018-01-03T23:40:32.366Z,36.13
2018-01-03T23:43:01.820Z,35.47
2018-01-03T23:45:30.603Z,34.50
2018-01-03T23:47:59.254Z,28.30
2018-01-03T23:50:27.975Z,31.47
2018-01-03T23:52:56.660Z,30.17
2018-01-03T23:55:25.347Z,30.97
2018-01-03T23:57:53.994Z,30.17
